sensor_id;sensor_type;location;lat;lon;timestamp;pressure;altitude;pressure_sealevel;temperature;humidity
13612;BME280;6877;51.436;6.774;2023-02-05T00:02:23;103276.31;;;5.23;98.28
13612;BME280;6877;51.436;6.774;2023-02-05T00:04:49;103264.69;;;5.15;98.80
13612;BME280;6877;51.436;6.774;2023-02-05T00:07:21;103264.34;;;5.07;99.45
13612;BME280;6877;51.436;6.774;2023-02-05T00:09:47;103262.25;;;4.99;100.00
13612;BME280;6877;51.436;6.774;2023-02-05T00:12:14;103263.75;;;4.94;100.00
13612;BME280;6877;51.436;6.774;2023-02-05T00:14:41;103254.84;;;4.88;100.00
13612;BME280;6877;51.436;6.774;2023-02-05T00:17:07;103254.66;;;4.84;100.00
13612;BME280;6877;51.436;6.774;2023-02-05T00:19:34;103249.31;;;4.81;100.00
13612;BME280;6877;51.436;6.774;2023-02-05T00:22:05;103238.91;;;4.79;100.00
13612;BME280;6877;51.436;6.774;2023-02-05T00:24:36;103243.13;;;4.77;100.00
13612;BME280;6877;51.436;6.774;2023-02-05T00:27:08;103236.97;;;4.75;100.00
13612;BME280;6877;51.436;6.774;2023-02-05T00:29:40;103231.56;;;4.71;100.00
13612;BME280;6877;51.436;6.774;2023-02-05T00:32:06;103242.69;;;4.68;100.00
13612;BME280;6877;51.436;6.774;2023-02-05T00:34:33;103228.75;;;4.66;100.00
13612;BME280;6877;51.436;6.774;2023-02-05T00:36:59;103227.81;;;4.64;100.00
13612;BME280;6877;51.436;6.774;2023-02-05T00:39:26;103222.69;;;4.65;100.00
13612;BME280;6877;51.436;6.774;2023-02-05T00:41:57;103210.47;;;4.63;100.00
13612;BME280;6877;51.436;6.774;2023-02-05T00:44:29;103204.38;;;4.62;100.00
13612;BME280;6877;51.436;6.774;2023-02-05T00:46:55;103211.28;;;4.62;100.00
13612;BME280;6877;51.436;6.774;2023-02-05T00:49:26;103206.09;;;4.62;100.00
13612;BME280;6877;51.436;6.774;2023-02-05T00:51:53;103194.09;;;4.64;100.00
13612;BME280;6877;51.436;6.774;2023-02-05T00:54:19;103187.91;;;4.60;100.00
13612;BME280;6877;51.436;6.774;2023-02-05T00:56:46;103191.38;;;4.61;100.00
13612;BME280;6877;51.436;6.774;2023-02-05T00:59:12;103193.22;;;4.63;100.00
13612;BME280;6877;51.436;6.774;2023-02-05T01:01:39;103186.97;;;4.60;100.00
13612;BME280;6877;51.436;6.774;2023-02-05T01:04:05;103193.09;;;4.60;100.00
13612;BME280;6877;51.436;6.774;2023-02-05T01:06:32;103186.03;;;4.58;100.00
13612;BME280;6877;51.436;6.774;2023-02-05T01:08:58;103168.69;;;4.57;100.00
13612;BME280;6877;51.436;6.774;2023-02-05T01:11:25;103169.53;;;4.56;100.00
13612;BME280;6877;51.436;6.774;2023-02-05T01:13:51;103168.63;;;4.55;100.00
13612;BME280;6877;51.436;6.774;2023-02-05T01:16:17;103157.38;;;4.55;100.00
13612;BME280;6877;51.436;6.774;2023-02-05T01:18:44;103157.25;;;4.52;100.00
13612;BME280;6877;51.436;6.774;2023-02-05T01:21:10;103164.88;;;4.49;100.00
13612;BME280;6877;51.436;6.774;2023-02-05T01:23:37;103167.38;;;4.47;100.00
13612;BME280;6877;51.436;6.774;2023-02-05T01:26:03;103170.81;;;4.46;100.00
13612;BME280;6877;51.436;6.774;2023-02-05T01:28:31;103169.09;;;4.47;100.00
13612;BME280;6877;51.436;6.774;2023-02-05T01:30:57;103169.09;;;4.47;100.00
13612;BME280;6877;51.436;6.774;2023-02-05T01:33:23;103176.97;;;4.48;100.00
13612;BME280;6877;51.436;6.774;2023-02-05T01:35:50;103170.91;;;4.48;100.00
13612;BME280;6877;51.436;6.774;2023-02-05T01:38:16;103162.28;;;4.49;100.00
13612;BME280;6877;51.436;6.774;2023-02-05T01:40:43;103163.31;;;4.52;100.00
13612;BME280;6877;51.436;6.774;2023-02-05T01:43:14;103168.69;;;4.57;100.00
13612;BME280;6877;51.436;6.774;2023-02-05T01:46:18;103170.53;;;4.59;100.00
13612;BME280;6877;51.436;6.774;2023-02-05T01:48:52;103178.41;;;4.61;100.00
13612;BME280;6877;51.436;6.774;2023-02-05T01:51:20;103168.03;;;4.61;100.00
13612;BME280;6877;51.436;6.774;2023-02-05T01:53:48;103168.16;;;4.64;100.00
13612;BME280;6877;51.436;6.774;2023-02-05T01:56:24;103169.06;;;4.64;100.00
13612;BME280;6877;51.436;6.774;2023-02-05T01:59:00;103163.78;;;4.63;100.00
13612;BME280;6877;51.436;6.774;2023-02-05T02:01:28;103156.91;;;4.63;100.00
13612;BME280;6877;51.436;6.774;2023-02-05T02:04:01;103169.94;;;4.65;100.00
13612;BME280;6877;51.436;6.774;2023-02-05T02:06:37;103170.81;;;4.65;100.00
13612;BME280;6877;51.436;6.774;2023-02-05T02:09:05;103179.47;;;4.66;100.00
13612;BME280;6877;51.436;6.774;2023-02-05T02:11:36;103177.81;;;4.67;100.00
13612;BME280;6877;51.436;6.774;2023-02-05T02:14:10;103179.56;;;4.68;100.00
13612;BME280;6877;51.436;6.774;2023-02-05T02:16:38;103178.72;;;4.69;100.00
13612;BME280;6877;51.436;6.774;2023-02-05T02:19:11;103183.22;;;4.73;100.00
13612;BME280;6877;51.436;6.774;2023-02-05T02:21:55;103179.88;;;4.75;100.00
13612;BME280;6877;51.436;6.774;2023-02-05T02:30:24;103195.06;;;4.85;100.00
13612;BME280;6877;51.436;6.774;2023-02-05T02:38:30;103168.75;;;4.97;100.00
13612;BME280;6877;51.436;6.774;2023-02-05T02:41:17;103172.44;;;5.02;100.00
13612;BME280;6877;51.436;6.774;2023-02-05T02:43:57;103164.69;;;5.04;100.00
13612;BME280;6877;51.436;6.774;2023-02-05T02:48:51;103163.19;;;5.09;100.00
13612;BME280;6877;51.436;6.774;2023-02-05T02:51:26;103153.78;;;5.11;100.00
13612;BME280;6877;51.436;6.774;2023-02-05T02:53:56;103155.59;;;5.14;100.00
13612;BME280;6877;51.436;6.774;2023-02-05T02:56:26;103162.63;;;5.16;100.00
13612;BME280;6877;51.436;6.774;2023-02-05T02:59:02;103154.03;;;5.17;100.00
13612;BME280;6877;51.436;6.774;2023-02-05T03:01:33;103154.22;;;5.22;100.00
13612;BME280;6877;51.436;6.774;2023-02-05T03:04:08;103148.28;;;5.24;100.00
13612;BME280;6877;51.436;6.774;2023-02-05T03:06:38;103141.41;;;5.26;100.00
13612;BME280;6877;51.436;6.774;2023-02-05T03:12:11;103128.56;;;5.29;100.00
13612;BME280;6877;51.436;6.774;2023-02-05T03:14:43;103120.72;;;5.28;100.00
13612;BME280;6877;51.436;6.774;2023-02-05T03:17:15;103106.91;;;5.29;100.00
13612;BME280;6877;51.436;6.774;2023-02-05T03:19:51;103101.66;;;5.27;100.00
13612;BME280;6877;51.436;6.774;2023-02-05T03:22:19;103122.38;;;5.26;100.00
13612;BME280;6877;51.436;6.774;2023-02-05T03:24:51;103127.63;;;5.27;100.00
13612;BME280;6877;51.436;6.774;2023-02-05T03:27:20;103114.66;;;5.27;100.00
13612;BME280;6877;51.436;6.774;2023-02-05T03:29:52;103118.13;;;5.28;100.00
13612;BME280;6877;51.436;6.774;2023-02-05T03:32:28;103113.91;;;5.30;100.00
13612;BME280;6877;51.436;6.774;2023-02-05T03:37:50;103119.25;;;5.34;100.00
13612;BME280;6877;51.436;6.774;2023-02-05T03:43:12;103103.94;;;5.41;100.00
13612;BME280;6877;51.436;6.774;2023-02-05T03:45:53;103095.44;;;5.45;100.00
13612;BME280;6877;51.436;6.774;2023-02-05T03:54:14;103086.50;;;5.59;100.00
13612;BME280;6877;51.436;6.774;2023-02-05T03:59:41;103099.88;;;5.70;100.00
13612;BME280;6877;51.436;6.774;2023-02-05T04:02:09;103104.28;;;5.71;100.00
13612;BME280;6877;51.436;6.774;2023-02-05T04:04:35;103109.47;;;5.71;100.00
13612;BME280;6877;51.436;6.774;2023-02-05T04:07:02;103113.75;;;5.70;100.00
13612;BME280;6877;51.436;6.774;2023-02-05T04:09:29;103105.09;;;5.70;100.00
13612;BME280;6877;51.436;6.774;2023-02-05T04:11:55;103117.06;;;5.66;100.00
13612;BME280;6877;51.436;6.774;2023-02-05T04:14:21;103116.06;;;5.63;100.00
13612;BME280;6877;51.436;6.774;2023-02-05T04:16:48;103128.97;;;5.61;100.00
13612;BME280;6877;51.436;6.774;2023-02-05T04:19:14;103117.72;;;5.61;100.00
13612;BME280;6877;51.436;6.774;2023-02-05T04:21:41;103137.59;;;5.60;100.00
13612;BME280;6877;51.436;6.774;2023-02-05T04:24:07;103130.53;;;5.56;100.00
13612;BME280;6877;51.436;6.774;2023-02-05T04:26:34;103120.97;;;5.55;100.00
13612;BME280;6877;51.436;6.774;2023-02-05T04:29:00;103125.25;;;5.54;100.00
13612;BME280;6877;51.436;6.774;2023-02-05T04:31:26;103139.91;;;5.52;100.00
13612;BME280;6877;51.436;6.774;2023-02-05T04:33:53;103141.66;;;5.53;100.00
13612;BME280;6877;51.436;6.774;2023-02-05T04:36:19;103138.13;;;5.51;100.00
13612;BME280;6877;51.436;6.774;2023-02-05T04:38:46;103132.03;;;5.51;100.00
13612;BME280;6877;51.436;6.774;2023-02-05T04:41:12;103131.25;;;5.52;100.00
13612;BME280;6877;51.436;6.774;2023-02-05T04:43:44;103131.25;;;5.52;100.00
13612;BME280;6877;51.436;6.774;2023-02-05T04:46:10;103122.53;;;5.51;100.00
13612;BME280;6877;51.436;6.774;2023-02-05T04:48:37;103127.69;;;5.50;100.00
13612;BME280;6877;51.436;6.774;2023-02-05T04:51:10;103114.69;;;5.50;100.00
13612;BME280;6877;51.436;6.774;2023-02-05T04:53:38;103114.69;;;5.50;100.00
13612;BME280;6877;51.436;6.774;2023-02-05T04:56:13;103112.09;;;5.50;100.00
13612;BME280;6877;51.436;6.774;2023-02-05T04:58:41;103113.81;;;5.49;100.00
13612;BME280;6877;51.436;6.774;2023-02-05T05:01:16;103110.34;;;5.49;100.00
13612;BME280;6877;51.436;6.774;2023-02-05T05:03:43;103115.53;;;5.49;100.00
13612;BME280;6877;51.436;6.774;2023-02-05T05:06:18;103135.47;;;5.50;100.00
13612;BME280;6877;51.436;6.774;2023-02-05T05:08:45;103132.03;;;5.51;100.00
13612;BME280;6877;51.436;6.774;2023-02-05T05:11:15;103116.53;;;5.52;100.00
13612;BME280;6877;51.436;6.774;2023-02-05T05:13:47;103120.00;;;5.53;100.00
13612;BME280;6877;51.436;6.774;2023-02-05T05:16:18;103123.56;;;5.55;100.00
13612;BME280;6877;51.436;6.774;2023-02-05T05:18:44;103123.56;;;5.55;100.00
13612;BME280;6877;51.436;6.774;2023-02-05T05:21:11;103125.34;;;5.56;100.00
13612;BME280;6877;51.436;6.774;2023-02-05T05:23:43;103121.03;;;5.56;100.00
13612;BME280;6877;51.436;6.774;2023-02-05T05:26:10;103107.97;;;5.55;100.00
13612;BME280;6877;51.436;6.774;2023-02-05T05:28:42;103103.66;;;5.55;100.00
13612;BME280;6877;51.436;6.774;2023-02-05T05:31:15;103101.75;;;5.51;100.00
13612;BME280;6877;51.436;6.774;2023-02-05T05:33:49;103089.56;;;5.49;100.00
13612;BME280;6877;51.436;6.774;2023-02-05T05:36:16;103087.72;;;5.46;100.00
13612;BME280;6877;51.436;6.774;2023-02-05T05:38:43;103092.03;;;5.46;100.00
13612;BME280;6877;51.436;6.774;2023-02-05T05:41:23;103092.97;;;5.48;100.00
13612;BME280;6877;51.436;6.774;2023-02-05T05:44:08;103099.00;;;5.47;100.00
13612;BME280;6877;51.436;6.774;2023-02-05T05:46:40;103090.34;;;5.48;100.00
13612;BME280;6877;51.436;6.774;2023-02-05T05:49:06;103092.16;;;5.49;100.00
13612;BME280;6877;51.436;6.774;2023-02-05T05:51:33;103088.72;;;5.50;100.00
13612;BME280;6877;51.436;6.774;2023-02-05T05:53:59;103093.91;;;5.50;100.00
13612;BME280;6877;51.436;6.774;2023-02-05T05:56:31;103088.72;;;5.50;100.00
13612;BME280;6877;51.436;6.774;2023-02-05T05:58:57;103083.56;;;5.51;100.00
13612;BME280;6877;51.436;6.774;2023-02-05T06:01:24;103087.09;;;5.52;100.00
13612;BME280;6877;51.436;6.774;2023-02-05T06:03:50;103086.16;;;5.51;100.00
13612;BME280;6877;51.436;6.774;2023-02-05T06:06:17;103089.59;;;5.50;100.00
13612;BME280;6877;51.436;6.774;2023-02-05T06:08:43;103092.19;;;5.50;100.00
13612;BME280;6877;51.436;6.774;2023-02-05T06:11:15;103087.09;;;5.52;100.00
13612;BME280;6877;51.436;6.774;2023-02-05T06:13:41;103089.69;;;5.52;100.00
13612;BME280;6877;51.436;6.774;2023-02-05T06:16:08;103085.41;;;5.54;100.00
13612;BME280;6877;51.436;6.774;2023-02-05T06:18:34;103086.28;;;5.54;100.00
13612;BME280;6877;51.436;6.774;2023-02-05T06:21:01;103082.00;;;5.55;100.00
13612;BME280;6877;51.436;6.774;2023-02-05T06:23:30;103092.41;;;5.55;100.00
13612;BME280;6877;51.436;6.774;2023-02-05T06:25:57;103083.91;;;5.59;100.00
13612;BME280;6877;51.436;6.774;2023-02-05T06:28:28;103077.88;;;5.60;100.00
13612;BME280;6877;51.436;6.774;2023-02-05T06:30:54;103079.63;;;5.61;100.00
13612;BME280;6877;51.436;6.774;2023-02-05T06:33:21;103082.19;;;5.60;100.00
13612;BME280;6877;51.436;6.774;2023-02-05T06:35:47;103081.28;;;5.59;100.00
13612;BME280;6877;51.436;6.774;2023-02-05T06:38:14;103078.81;;;5.62;100.00
13612;BME280;6877;51.436;6.774;2023-02-05T06:40:40;103059.75;;;5.62;100.00
13612;BME280;6877;51.436;6.774;2023-02-05T06:43:07;103068.44;;;5.62;100.00
13612;BME280;6877;51.436;6.774;2023-02-05T06:45:33;103066.63;;;5.61;100.00
13612;BME280;6877;51.436;6.774;2023-02-05T06:48:00;103070.06;;;5.60;100.00
13612;BME280;6877;51.436;6.774;2023-02-05T06:50:26;103066.63;;;5.61;100.00
13612;BME280;6877;51.436;6.774;2023-02-05T06:52:53;103064.13;;;5.63;100.00
13612;BME280;6877;51.436;6.774;2023-02-05T06:55:19;103064.13;;;5.63;100.00
13612;BME280;6877;51.436;6.774;2023-02-05T06:57:46;103052.84;;;5.62;100.00
13612;BME280;6877;51.436;6.774;2023-02-05T07:00:13;103070.16;;;5.62;100.00
13612;BME280;6877;51.436;6.774;2023-02-05T07:02:40;103067.47;;;5.60;100.00
13612;BME280;6877;51.436;6.774;2023-02-05T07:05:06;103064.03;;;5.61;100.00
13612;BME280;6877;51.436;6.774;2023-02-05T07:07:33;103069.19;;;5.60;100.00
13612;BME280;6877;51.436;6.774;2023-02-05T07:10:00;103070.91;;;5.59;100.00
13612;BME280;6877;51.436;6.774;2023-02-05T07:12:27;103068.31;;;5.59;100.00
13612;BME280;6877;51.436;6.774;2023-02-05T07:14:53;103076.94;;;5.58;100.00
13612;BME280;6877;51.436;6.774;2023-02-05T07:17:20;103067.34;;;5.57;100.00
13612;BME280;6877;51.436;6.774;2023-02-05T07:19:51;103074.25;;;5.56;100.00
13612;BME280;6877;51.436;6.774;2023-02-05T07:22:18;103069.03;;;5.55;100.00
13612;BME280;6877;51.436;6.774;2023-02-05T07:24:45;103072.44;;;5.54;100.00
13612;BME280;6877;51.436;6.774;2023-02-05T07:27:11;103061.22;;;5.55;100.00
13612;BME280;6877;51.436;6.774;2023-02-05T07:29:37;103061.13;;;5.52;100.00
13612;BME280;6877;51.436;6.774;2023-02-05T07:32:04;103064.50;;;5.51;100.00
13612;BME280;6877;51.436;6.774;2023-02-05T07:34:30;103064.50;;;5.51;100.00
13612;BME280;6877;51.436;6.774;2023-02-05T07:36:57;103060.16;;;5.50;100.00
13612;BME280;6877;51.436;6.774;2023-02-05T07:39:28;103062.75;;;5.50;100.00
13612;BME280;6877;51.436;6.774;2023-02-05T07:42:00;103069.72;;;5.51;100.00
13612;BME280;6877;51.436;6.774;2023-02-05T07:44:26;103057.56;;;5.50;100.00
13612;BME280;6877;51.436;6.774;2023-02-05T07:46:53;103058.41;;;5.49;100.00
13612;BME280;6877;51.436;6.774;2023-02-05T07:49:19;103064.50;;;5.51;100.00
13612;BME280;6877;51.436;6.774;2023-02-05T07:51:46;103066.19;;;5.49;100.00
13612;BME280;6877;51.436;6.774;2023-02-05T07:54:21;103067.94;;;5.50;100.00
13612;BME280;6877;51.436;6.774;2023-02-05T07:56:48;103069.59;;;5.48;100.00
13612;BME280;6877;51.436;6.774;2023-02-05T07:59:14;103072.13;;;5.46;100.00
13612;BME280;6877;51.436;6.774;2023-02-05T08:01:41;103076.44;;;5.46;100.00
13612;BME280;6877;51.436;6.774;2023-02-05T08:04:07;103079.09;;;5.47;100.00
13612;BME280;6877;51.436;6.774;2023-02-05T08:06:34;103080.84;;;5.48;100.00
13612;BME280;6877;51.436;6.774;2023-02-05T08:09:05;103079.97;;;5.48;100.00
13612;BME280;6877;51.436;6.774;2023-02-05T08:11:31;103084.28;;;5.47;100.00
13612;BME280;6877;51.436;6.774;2023-02-05T08:13:59;103088.59;;;5.47;100.00
13612;BME280;6877;51.436;6.774;2023-02-05T08:16:26;103106.78;;;5.47;100.00
13612;BME280;6877;51.436;6.774;2023-02-05T08:18:52;103109.38;;;5.47;100.00
13612;BME280;6877;51.436;6.774;2023-02-05T08:21:19;103104.53;;;5.33;100.00
13612;BME280;6877;51.436;6.774;2023-02-05T08:23:51;103112.84;;;5.26;100.00
13612;BME280;6877;51.436;6.774;2023-02-05T08:26:18;103118.63;;;5.19;100.00
13612;BME280;6877;51.436;6.774;2023-02-05T08:28:51;103108.13;;;5.16;100.00
13612;BME280;6877;51.436;6.774;2023-02-05T08:31:18;103130.41;;;5.11;100.00
13612;BME280;6877;51.436;6.774;2023-02-05T08:33:44;103132.06;;;5.09;100.00
13612;BME280;6877;51.436;6.774;2023-02-05T08:36:13;103130.47;;;5.13;100.00
13612;BME280;6877;51.436;6.774;2023-02-05T08:38:39;103125.50;;;5.17;100.00
13612;BME280;6877;51.436;6.774;2023-02-05T08:41:08;103139.41;;;5.19;100.00
13612;BME280;6877;51.436;6.774;2023-02-05T08:43:42;103129.91;;;5.20;100.00
13612;BME280;6877;51.436;6.774;2023-02-05T08:46:11;103126.41;;;5.19;100.00
13612;BME280;6877;51.436;6.774;2023-02-05T08:48:39;103135.78;;;5.16;100.00
13612;BME280;6877;51.436;6.774;2023-02-05T08:51:08;103140.72;;;5.09;100.00
13612;BME280;6877;51.436;6.774;2023-02-05T08:53:34;103133.56;;;5.04;100.00
13612;BME280;6877;51.436;6.774;2023-02-05T08:56:07;103131.66;;;5.00;100.00
13612;BME280;6877;51.436;6.774;2023-02-05T08:58:36;103143.81;;;5.01;100.00
13612;BME280;6877;51.436;6.774;2023-02-05T09:01:06;103135.25;;;5.03;100.00
13612;BME280;6877;51.436;6.774;2023-02-05T09:03:39;103140.53;;;5.05;100.00
13612;BME280;6877;51.436;6.774;2023-02-05T09:06:13;103141.56;;;5.08;100.00
13612;BME280;6877;51.436;6.774;2023-02-05T09:08:40;103140.72;;;5.09;100.00
13612;BME280;6877;51.436;6.774;2023-02-05T09:11:07;103142.56;;;5.12;100.00
13612;BME280;6877;51.436;6.774;2023-02-05T09:13:34;103151.09;;;5.09;100.00
13612;BME280;6877;51.436;6.774;2023-02-05T09:16:03;103134.66;;;5.09;100.00
13612;BME280;6877;51.436;6.774;2023-02-05T09:18:30;103151.94;;;5.08;100.00
13612;BME280;6877;51.436;6.774;2023-02-05T09:20:56;103152.88;;;5.10;100.00
13612;BME280;6877;51.436;6.774;2023-02-05T09:23:22;103155.59;;;5.14;100.00
13612;BME280;6877;51.436;6.774;2023-02-05T09:25:49;103158.28;;;5.15;100.00
13612;BME280;6877;51.436;6.774;2023-02-05T09:28:15;103156.56;;;5.16;100.00
13612;BME280;6877;51.436;6.774;2023-02-05T09:30:47;103165.22;;;5.16;100.00
13612;BME280;6877;51.436;6.774;2023-02-05T09:33:18;103167.78;;;5.15;100.00
13612;BME280;6877;51.436;6.774;2023-02-05T09:35:45;103172.13;;;5.16;100.00
13612;BME280;6877;51.436;6.774;2023-02-05T09:38:12;103166.88;;;5.14;100.00
13612;BME280;6877;51.436;6.774;2023-02-05T09:40:48;103170.28;;;5.13;100.00
13612;BME280;6877;51.436;6.774;2023-02-05T09:49:20;103170.41;;;5.16;100.00
13612;BME280;6877;51.436;6.774;2023-02-05T09:51:50;103164.59;;;5.22;100.00
13612;BME280;6877;51.436;6.774;2023-02-05T09:54:25;103177.09;;;5.30;100.00
13612;BME280;6877;51.436;6.774;2023-02-05T09:56:56;103165.28;;;5.39;100.00
13612;BME280;6877;51.436;6.774;2023-02-05T09:59:28;103169.94;;;5.46;100.00
13612;BME280;6877;51.436;6.774;2023-02-05T10:02:00;103172.78;;;5.52;100.00
13612;BME280;6877;51.436;6.774;2023-02-05T10:04:27;103180.72;;;5.55;100.00
13612;BME280;6877;51.436;6.774;2023-02-05T10:21:34;103164.66;;;5.65;100.00
13612;BME280;6877;51.436;6.774;2023-02-05T10:24:27;103164.59;;;5.64;100.00
13612;BME280;6877;51.436;6.774;2023-02-05T10:32:19;103134.41;;;5.67;100.00
13612;BME280;6877;51.436;6.774;2023-02-05T10:35:20;103141.34;;;5.67;100.00
13612;BME280;6877;51.436;6.774;2023-02-05T10:37:54;103141.47;;;5.70;100.00
13612;BME280;6877;51.436;6.774;2023-02-05T10:40:27;103139.63;;;5.67;100.00
13612;BME280;6877;51.436;6.774;2023-02-05T10:43:16;103141.34;;;5.67;100.00
13612;BME280;6877;51.436;6.774;2023-02-05T10:45:44;103144.06;;;5.70;100.00
13612;BME280;6877;51.436;6.774;2023-02-05T10:53:22;103143.94;;;5.67;100.00
13612;BME280;6877;51.436;6.774;2023-02-05T10:55:50;103146.25;;;5.59;100.00
13612;BME280;6877;51.436;6.774;2023-02-05T10:58:36;103149.47;;;5.53;100.00
13612;BME280;6877;51.436;6.774;2023-02-05T11:01:11;103139.03;;;5.52;100.00
13612;BME280;6877;51.436;6.774;2023-02-05T11:04:04;103147.63;;;5.51;100.00
13612;BME280;6877;51.436;6.774;2023-02-05T11:06:32;103137.22;;;5.51;100.00
13612;BME280;6877;51.436;6.774;2023-02-05T11:09:02;103145.22;;;5.55;100.00
13612;BME280;6877;51.436;6.774;2023-02-05T11:11:30;103148.75;;;5.57;100.00
13612;BME280;6877;51.436;6.774;2023-02-05T11:14:01;103156.50;;;5.56;100.00
13612;BME280;6877;51.436;6.774;2023-02-05T11:16:43;103157.34;;;5.55;100.00
13612;BME280;6877;51.436;6.774;2023-02-05T11:19:37;103157.22;;;5.52;100.00
13612;BME280;6877;51.436;6.774;2023-02-05T11:22:03;103148.50;;;5.51;100.00
13612;BME280;6877;51.436;6.774;2023-02-05T11:27:18;103154.75;;;5.55;100.00
13612;BME280;6877;51.436;6.774;2023-02-05T11:29:56;103152.16;;;5.55;100.00
13612;BME280;6877;51.436;6.774;2023-02-05T11:32:31;103140.91;;;5.56;100.00
13612;BME280;6877;51.436;6.774;2023-02-05T11:38:07;103149.53;;;5.55;100.00
13612;BME280;6877;51.436;6.774;2023-02-05T11:40:39;103138.13;;;5.51;100.00
13612;BME280;6877;51.436;6.774;2023-02-05T11:43:15;103165.81;;;5.51;100.00
13612;BME280;6877;51.436;6.774;2023-02-05T11:45:50;103171.84;;;5.50;100.00
13612;BME280;6877;51.436;6.774;2023-02-05T11:51:07;103163.16;;;5.49;100.00
13612;BME280;6877;51.436;6.774;2023-02-05T11:53:35;103173.72;;;5.54;100.00
13612;BME280;6877;51.436;6.774;2023-02-05T11:56:08;103162.44;;;5.53;100.00
13612;BME280;6877;51.436;6.774;2023-02-05T11:58:36;103172.00;;;5.54;100.00
13612;BME280;6877;51.436;6.774;2023-02-05T12:01:21;103187.66;;;5.56;100.00
13612;BME280;6877;51.436;6.774;2023-02-05T12:04:03;103184.25;;;5.57;100.00
13612;BME280;6877;51.436;6.774;2023-02-05T12:06:52;103186.03;;;5.58;100.00
13612;BME280;6877;51.436;6.774;2023-02-05T12:09:23;103180.94;;;5.61;100.00
13612;BME280;6877;51.436;6.774;2023-02-05T12:28:44;103185.91;;;5.55;100.00
13612;BME280;6877;51.436;6.774;2023-02-05T12:31:46;103167.84;;;5.58;100.00
13612;BME280;6877;51.436;6.774;2023-02-05T12:45:27;103217.25;;;5.80;97.52
13612;BME280;6877;51.436;6.774;2023-02-05T12:51:02;103206.78;;;5.79;95.67
13612;BME280;6877;51.436;6.774;2023-02-05T12:56:22;103210.09;;;5.75;95.58
13612;BME280;6877;51.436;6.774;2023-02-05T12:58:55;103220.34;;;5.72;96.18
13612;BME280;6877;51.436;6.774;2023-02-05T13:01:48;103223.91;;;5.74;95.71
13612;BME280;6877;51.436;6.774;2023-02-05T13:04:33;103224.97;;;5.79;94.76
13612;BME280;6877;51.436;6.774;2023-02-05T13:07:11;103219.84;;;5.80;93.81
13612;BME280;6877;51.436;6.774;2023-02-05T13:09:47;103222.47;;;5.80;93.17
13612;BME280;6877;51.436;6.774;2023-02-05T13:12:17;103232.00;;;5.81;93.47
13612;BME280;6877;51.436;6.774;2023-02-05T13:17:22;103230.50;;;5.87;93.83
13612;BME280;6877;51.436;6.774;2023-02-05T13:19:55;103224.78;;;5.95;93.69
13612;BME280;6877;51.436;6.774;2023-02-05T13:22:36;103223.41;;;6.03;91.94
13612;BME280;6877;51.436;6.774;2023-02-05T13:25:29;103223.66;;;6.10;92.21
13612;BME280;6877;51.436;6.774;2023-02-05T13:28:37;103221.56;;;6.23;91.69
13612;BME280;6877;51.436;6.774;2023-02-05T13:31:24;103231.53;;;6.34;90.58
13612;BME280;6877;51.436;6.774;2023-02-05T13:33:54;103228.13;;;6.36;90.37
13612;BME280;6877;51.436;6.774;2023-02-05T13:36:43;103234.34;;;6.40;90.45
13612;BME280;6877;51.436;6.774;2023-02-05T13:50:42;103284.53;;;6.37;90.92
13612;BME280;6877;51.436;6.774;2023-02-05T13:56:25;103287.56;;;6.48;90.31
13612;BME280;6877;51.436;6.774;2023-02-05T13:58:58;103284.84;;;6.45;90.26
13612;BME280;6877;51.436;6.774;2023-02-05T14:01:39;103286.72;;;6.49;90.23
13612;BME280;6877;51.436;6.774;2023-02-05T14:04:17;103288.63;;;6.53;90.31
13612;BME280;6877;51.436;6.774;2023-02-05T14:06:59;103281.00;;;6.58;89.89
13612;BME280;6877;51.436;6.774;2023-02-05T14:09:49;103295.84;;;6.60;89.50
13612;BME280;6877;51.436;6.774;2023-02-05T14:12:29;103308.38;;;6.48;90.56
13612;BME280;6877;51.436;6.774;2023-02-05T14:22:58;103305.13;;;6.54;91.00
13612;BME280;6877;51.436;6.774;2023-02-05T14:39:02;103313.19;;;6.39;88.25
13612;BME280;6877;51.436;6.774;2023-02-05T14:41:53;103315.16;;;6.44;87.14
13612;BME280;6877;51.436;6.774;2023-02-05T14:44:29;103322.34;;;6.50;85.64
13612;BME280;6877;51.436;6.774;2023-02-05T14:49:46;103324.94;;;6.50;85.54
13612;BME280;6877;51.436;6.774;2023-02-05T14:52:23;103328.34;;;6.49;86.33
13612;BME280;6877;51.436;6.774;2023-02-05T15:00:45;103327.66;;;6.53;84.83
13612;BME280;6877;51.436;6.774;2023-02-05T15:19:41;103339.09;;;6.36;85.37
13612;BME280;6877;51.436;6.774;2023-02-05T15:25:06;103339.94;;;6.35;86.27
13612;BME280;6877;51.436;6.774;2023-02-05T15:27:43;103345.13;;;6.35;86.13
13612;BME280;6877;51.436;6.774;2023-02-05T15:30:19;103354.53;;;6.31;86.64
13612;BME280;6877;51.436;6.774;2023-02-05T15:32:51;103358.06;;;6.33;86.47
13612;BME280;6877;51.436;6.774;2023-02-05T15:35:27;103362.38;;;6.33;86.60
13612;BME280;6877;51.436;6.774;2023-02-05T15:37:59;103361.44;;;6.31;86.53
13612;BME280;6877;51.436;6.774;2023-02-05T15:40:39;103368.41;;;6.32;86.47
13612;BME280;6877;51.436;6.774;2023-02-05T15:43:22;103365.06;;;6.34;86.27
13612;BME280;6877;51.436;6.774;2023-02-05T15:45:51;103372.28;;;6.41;84.82
13612;BME280;6877;51.436;6.774;2023-02-05T15:48:24;103370.50;;;6.40;85.15
13612;BME280;6877;51.436;6.774;2023-02-05T15:51:47;103382.59;;;6.40;84.92
13612;BME280;6877;51.436;6.774;2023-02-05T15:53:49;103390.34;;;6.38;84.79
13612;BME280;6877;51.436;6.774;2023-02-05T15:56:21;103388.50;;;6.36;84.60
13612;BME280;6877;51.436;6.774;2023-02-05T15:58:57;103391.94;;;6.35;83.54
13612;BME280;6877;51.436;6.774;2023-02-05T16:01:29;103391.81;;;6.32;83.70
13612;BME280;6877;51.436;6.774;2023-02-05T16:04:00;103398.78;;;6.33;83.36
13612;BME280;6877;51.436;6.774;2023-02-05T16:06:29;103395.38;;;6.34;81.98
13612;BME280;6877;51.436;6.774;2023-02-05T16:08:55;103397.06;;;6.33;81.78
13612;BME280;6877;51.436;6.774;2023-02-05T16:11:32;103395.31;;;6.32;81.60
13612;BME280;6877;51.436;6.774;2023-02-05T16:14:13;103395.13;;;6.28;81.88
13612;BME280;6877;51.436;6.774;2023-02-05T16:19:37;103405.66;;;6.31;79.58